sensor_id;sensor_type;location;lat;lon;timestamp;P1;durP1;ratioP1;P2;durP2;ratioP2
62696;SDS011;48761;42.680;23.312;2022-11-23T00:00:32;22.55;;;14.98;;
62696;SDS011;48761;42.680;23.312;2022-11-23T00:02:58;26.83;;;15.43;;
62696;SDS011;48761;42.680;23.312;2022-11-23T00:05:25;22.65;;;16.10;;
62696;SDS011;48761;42.680;23.312;2022-11-23T00:07:52;22.05;;;15.13;;
62696;SDS011;48761;42.680;23.312;2022-11-23T00:10:18;25.95;;;15.23;;
62696;SDS011;48761;42.680;23.312;2022-11-23T00:12:44;21.88;;;15.55;;
62696;SDS011;48761;42.680;23.312;2022-11-23T00:15:11;24.70;;;15.82;;
62696;SDS011;48761;42.680;23.312;2022-11-23T00:17:38;21.48;;;14.90;;
62696;SDS011;48761;42.680;23.312;2022-11-23T00:20:04;23.23;;;15.00;;
62696;SDS011;48761;42.680;23.312;2022-11-23T00:22:32;25.02;;;15.75;;
62696;SDS011;48761;42.680;23.312;2022-11-23T00:24:58;25.75;;;15.40;;
62696;SDS011;48761;42.680;23.312;2022-11-23T00:27:24;25.48;;;16.27;;
62696;SDS011;48761;42.680;23.312;2022-11-23T00:29:51;24.50;;;16.50;;
62696;SDS011;48761;42.680;23.312;2022-11-23T00:32:16;22.67;;;15.15;;
62696;SDS011;48761;42.680;23.312;2022-11-23T00:34:42;21.90;;;14.52;;
62696;SDS011;48761;42.680;23.312;2022-11-23T00:37:08;22.10;;;15.38;;
62696;SDS011;48761;42.680;23.312;2022-11-23T00:39:34;21.50;;;14.23;;
62696;SDS011;48761;42.680;23.312;2022-11-23T00:42:00;23.98;;;14.32;;
62696;SDS011;48761;42.680;23.312;2022-11-23T00:44:26;20.58;;;14.07;;
62696;SDS011;48761;42.680;23.312;2022-11-23T00:46:52;21.50;;;14.25;;
62696;SDS011;48761;42.680;23.312;2022-11-23T00:49:18;22.45;;;15.00;;
62696;SDS011;48761;42.680;23.312;2022-11-23T00:51:44;22.17;;;15.00;;
62696;SDS011;48761;42.680;23.312;2022-11-23T00:54:10;23.40;;;16.02;;
62696;SDS011;48761;42.680;23.312;2022-11-23T00:56:36;21.42;;;14.45;;
62696;SDS011;48761;42.680;23.312;2022-11-23T00:59:02;23.17;;;14.32;;
62696;SDS011;48761;42.680;23.312;2022-11-23T01:01:29;20.63;;;15.02;;
62696;SDS011;48761;42.680;23.312;2022-11-23T01:03:58;24.75;;;14.80;;
62696;SDS011;48761;42.680;23.312;2022-11-23T01:06:26;26.92;;;15.18;;
62696;SDS011;48761;42.680;23.312;2022-11-23T01:08:55;21.95;;;14.00;;
62696;SDS011;48761;42.680;23.312;2022-11-23T01:11:23;24.95;;;15.02;;
62696;SDS011;48761;42.680;23.312;2022-11-23T01:13:50;23.52;;;16.02;;
62696;SDS011;48761;42.680;23.312;2022-11-23T01:16:23;24.35;;;16.05;;
62696;SDS011;48761;42.680;23.312;2022-11-23T01:21:21;23.02;;;15.05;;
62696;SDS011;48761;42.680;23.312;2022-11-23T01:23:48;23.73;;;15.73;;
62696;SDS011;48761;42.680;23.312;2022-11-23T01:26:14;23.88;;;16.08;;
62696;SDS011;48761;42.680;23.312;2022-11-23T01:28:40;23.92;;;16.17;;
62696;SDS011;48761;42.680;23.312;2022-11-23T01:31:08;24.55;;;16.08;;
62696;SDS011;48761;42.680;23.312;2022-11-23T01:33:36;20.85;;;14.50;;
62696;SDS011;48761;42.680;23.312;2022-11-23T01:36:12;21.48;;;15.27;;
62696;SDS011;48761;42.680;23.312;2022-11-23T01:38:42;25.42;;;15.90;;
62696;SDS011;48761;42.680;23.312;2022-11-23T01:46:53;21.67;;;13.27;;
62696;SDS011;48761;42.680;23.312;2022-11-23T01:49:21;18.17;;;13.00;;
62696;SDS011;48761;42.680;23.312;2022-11-23T01:51:49;19.75;;;13.85;;
62696;SDS011;48761;42.680;23.312;2022-11-23T01:54:42;20.02;;;14.10;;
62696;SDS011;48761;42.680;23.312;2022-11-23T01:57:16;21.63;;;13.73;;
62696;SDS011;48761;42.680;23.312;2022-11-23T01:59:55;18.10;;;12.35;;
62696;SDS011;48761;42.680;23.312;2022-11-23T02:02:22;18.20;;;12.43;;
62696;SDS011;48761;42.680;23.312;2022-11-23T02:04:51;20.40;;;13.35;;
62696;SDS011;48761;42.680;23.312;2022-11-23T02:07:19;15.82;;;10.85;;
62696;SDS011;48761;42.680;23.312;2022-11-23T02:09:46;17.63;;;11.43;;
62696;SDS011;48761;42.680;23.312;2022-11-23T02:12:12;17.20;;;11.75;;
62696;SDS011;48761;42.680;23.312;2022-11-23T02:14:39;19.73;;;13.07;;
62696;SDS011;48761;42.680;23.312;2022-11-23T02:17:06;20.23;;;13.07;;
62696;SDS011;48761;42.680;23.312;2022-11-23T02:22:05;17.58;;;12.52;;
62696;SDS011;48761;42.680;23.312;2022-11-23T02:24:45;19.45;;;14.00;;
62696;SDS011;48761;42.680;23.312;2022-11-23T02:27:17;20.27;;;13.57;;
62696;SDS011;48761;42.680;23.312;2022-11-23T02:29:44;19.92;;;13.98;;
62696;SDS011;48761;42.680;23.312;2022-11-23T02:32:16;20.52;;;13.73;;
62696;SDS011;48761;42.680;23.312;2022-11-23T02:34:45;21.35;;;15.68;;
62696;SDS011;48761;42.680;23.312;2022-11-23T02:37:11;22.73;;;16.52;;
62696;SDS011;48761;42.680;23.312;2022-11-23T02:39:41;24.80;;;15.93;;
62696;SDS011;48761;42.680;23.312;2022-11-23T02:42:14;24.35;;;14.73;;
62696;SDS011;48761;42.680;23.312;2022-11-23T02:47:30;21.92;;;15.23;;
62696;SDS011;48761;42.680;23.312;2022-11-23T02:49:56;23.05;;;15.32;;
62696;SDS011;48761;42.680;23.312;2022-11-23T02:52:21;23.55;;;16.63;;
62696;SDS011;48761;42.680;23.312;2022-11-23T02:54:48;25.17;;;16.83;;
62696;SDS011;48761;42.680;23.312;2022-11-23T02:57:14;23.42;;;16.33;;
62696;SDS011;48761;42.680;23.312;2022-11-23T02:59:40;26.00;;;17.05;;
62696;SDS011;48761;42.680;23.312;2022-11-23T03:02:07;23.38;;;16.58;;
62696;SDS011;48761;42.680;23.312;2022-11-23T03:04:33;26.50;;;16.67;;
62696;SDS011;48761;42.680;23.312;2022-11-23T03:06:59;23.45;;;16.95;;
62696;SDS011;48761;42.680;23.312;2022-11-23T03:09:25;23.58;;;16.63;;
62696;SDS011;48761;42.680;23.312;2022-11-23T03:11:51;23.52;;;17.13;;
62696;SDS011;48761;42.680;23.312;2022-11-23T03:14:18;27.25;;;17.67;;
62696;SDS011;48761;42.680;23.312;2022-11-23T03:16:44;23.17;;;16.90;;
62696;SDS011;48761;42.680;23.312;2022-11-23T03:19:10;25.40;;;17.08;;
62696;SDS011;48761;42.680;23.312;2022-11-23T03:21:36;23.33;;;17.15;;
62696;SDS011;48761;42.680;23.312;2022-11-23T03:24:02;26.55;;;17.52;;
62696;SDS011;48761;42.680;23.312;2022-11-23T03:26:28;25.25;;;16.98;;
62696;SDS011;48761;42.680;23.312;2022-11-23T03:28:54;26.45;;;17.85;;
62696;SDS011;48761;42.680;23.312;2022-11-23T03:31:20;24.35;;;16.20;;
62696;SDS011;48761;42.680;23.312;2022-11-23T03:33:46;25.20;;;16.63;;
62696;SDS011;48761;42.680;23.312;2022-11-23T03:36:12;23.77;;;16.67;;
62696;SDS011;48761;42.680;23.312;2022-11-23T03:38:38;25.48;;;17.48;;
62696;SDS011;48761;42.680;23.312;2022-11-23T03:41:04;24.85;;;18.15;;
62696;SDS011;48761;42.680;23.312;2022-11-23T03:43:30;20.30;;;14.30;;
62696;SDS011;48761;42.680;23.312;2022-11-23T03:45:56;21.67;;;15.80;;
62696;SDS011;48761;42.680;23.312;2022-11-23T03:48:22;25.33;;;15.80;;
62696;SDS011;48761;42.680;23.312;2022-11-23T03:50:48;22.67;;;15.18;;
62696;SDS011;48761;42.680;23.312;2022-11-23T03:53:14;23.63;;;15.85;;
62696;SDS011;48761;42.680;23.312;2022-11-23T03:55:40;20.40;;;14.30;;
62696;SDS011;48761;42.680;23.312;2022-11-23T03:58:07;18.58;;;13.18;;
62696;SDS011;48761;42.680;23.312;2022-11-23T04:00:33;20.08;;;12.52;;
62696;SDS011;48761;42.680;23.312;2022-11-23T04:02:59;21.75;;;13.05;;
62696;SDS011;48761;42.680;23.312;2022-11-23T04:05:25;18.48;;;12.45;;
62696;SDS011;48761;42.680;23.312;2022-11-23T04:07:51;17.63;;;11.65;;
62696;SDS011;48761;42.680;23.312;2022-11-23T04:10:18;17.70;;;12.02;;
62696;SDS011;48761;42.680;23.312;2022-11-23T04:12:44;20.42;;;13.20;;
62696;SDS011;48761;42.680;23.312;2022-11-23T04:15:10;19.98;;;13.68;;
62696;SDS011;48761;42.680;23.312;2022-11-23T04:17:36;20.85;;;14.18;;
62696;SDS011;48761;42.680;23.312;2022-11-23T04:20:03;21.17;;;14.02;;
62696;SDS011;48761;42.680;23.312;2022-11-23T04:22:29;20.33;;;14.07;;
62696;SDS011;48761;42.680;23.312;2022-11-23T04:24:55;18.85;;;13.85;;
62696;SDS011;48761;42.680;23.312;2022-11-23T04:27:21;19.95;;;12.38;;
62696;SDS011;48761;42.680;23.312;2022-11-23T04:29:47;18.20;;;13.15;;
62696;SDS011;48761;42.680;23.312;2022-11-23T04:32:13;20.83;;;14.25;;
62696;SDS011;48761;42.680;23.312;2022-11-23T04:34:39;18.35;;;13.90;;
62696;SDS011;48761;42.680;23.312;2022-11-23T04:37:05;20.80;;;14.05;;
62696;SDS011;48761;42.680;23.312;2022-11-23T04:39:31;23.75;;;14.40;;
62696;SDS011;48761;42.680;23.312;2022-11-23T04:41:57;20.70;;;14.65;;
62696;SDS011;48761;42.680;23.312;2022-11-23T04:44:23;19.73;;;14.80;;
62696;SDS011;48761;42.680;23.312;2022-11-23T04:46:49;21.83;;;14.73;;
62696;SDS011;48761;42.680;23.312;2022-11-23T04:49:15;20.23;;;14.52;;
62696;SDS011;48761;42.680;23.312;2022-11-23T04:51:41;23.85;;;15.10;;
62696;SDS011;48761;42.680;23.312;2022-11-23T04:54:08;21.60;;;15.85;;
62696;SDS011;48761;42.680;23.312;2022-11-23T04:56:34;25.00;;;15.57;;
62696;SDS011;48761;42.680;23.312;2022-11-23T04:59:00;23.15;;;16.95;;
62696;SDS011;48761;42.680;23.312;2022-11-23T05:01:27;25.98;;;18.23;;
62696;SDS011;48761;42.680;23.312;2022-11-23T05:03:53;22.02;;;16.48;;
62696;SDS011;48761;42.680;23.312;2022-11-23T05:06:19;27.20;;;18.60;;
62696;SDS011;48761;42.680;23.312;2022-11-23T05:08:45;29.02;;;20.48;;
62696;SDS011;48761;42.680;23.312;2022-11-23T05:11:11;32.58;;;22.98;;
62696;SDS011;48761;42.680;23.312;2022-11-23T05:13:37;32.95;;;23.20;;
62696;SDS011;48761;42.680;23.312;2022-11-23T05:16:03;31.98;;;23.35;;
62696;SDS011;48761;42.680;23.312;2022-11-23T05:18:29;31.38;;;23.20;;
62696;SDS011;48761;42.680;23.312;2022-11-23T05:20:55;32.67;;;22.75;;
62696;SDS011;48761;42.680;23.312;2022-11-23T05:23:21;34.83;;;23.10;;
62696;SDS011;48761;42.680;23.312;2022-11-23T05:25:46;32.60;;;21.83;;
62696;SDS011;48761;42.680;23.312;2022-11-23T05:28:17;32.60;;;23.58;;
62696;SDS011;48761;42.680;23.312;2022-11-23T05:30:44;29.52;;;23.08;;
62696;SDS011;48761;42.680;23.312;2022-11-23T05:33:10;31.70;;;23.88;;
62696;SDS011;48761;42.680;23.312;2022-11-23T05:35:36;33.35;;;21.75;;
62696;SDS011;48761;42.680;23.312;2022-11-23T05:38:03;32.35;;;23.48;;
62696;SDS011;48761;42.680;23.312;2022-11-23T05:40:29;29.25;;;23.42;;
62696;SDS011;48761;42.680;23.312;2022-11-23T05:42:56;32.50;;;24.13;;
62696;SDS011;48761;42.680;23.312;2022-11-23T05:45:22;38.92;;;27.50;;
62696;SDS011;48761;42.680;23.312;2022-11-23T05:47:52;39.05;;;27.88;;
62696;SDS011;48761;42.680;23.312;2022-11-23T05:50:20;37.97;;;27.90;;
62696;SDS011;48761;42.680;23.312;2022-11-23T05:52:47;41.20;;;28.95;;
62696;SDS011;48761;42.680;23.312;2022-11-23T05:55:13;39.30;;;27.95;;
62696;SDS011;48761;42.680;23.312;2022-11-23T05:57:39;39.30;;;27.40;;
62696;SDS011;48761;42.680;23.312;2022-11-23T06:00:06;37.22;;;27.30;;
62696;SDS011;48761;42.680;23.312;2022-11-23T06:02:33;36.28;;;27.08;;
62696;SDS011;48761;42.680;23.312;2022-11-23T06:04:59;37.67;;;26.13;;
62696;SDS011;48761;42.680;23.312;2022-11-23T06:07:25;33.88;;;25.63;;
62696;SDS011;48761;42.680;23.312;2022-11-23T06:09:51;33.25;;;24.90;;
62696;SDS011;48761;42.680;23.312;2022-11-23T06:12:17;37.40;;;26.45;;
62696;SDS011;48761;42.680;23.312;2022-11-23T06:14:43;34.47;;;24.92;;
62696;SDS011;48761;42.680;23.312;2022-11-23T06:17:09;36.47;;;25.85;;
62696;SDS011;48761;42.680;23.312;2022-11-23T06:19:35;36.92;;;25.15;;
62696;SDS011;48761;42.680;23.312;2022-11-23T06:22:01;34.85;;;24.35;;
62696;SDS011;48761;42.680;23.312;2022-11-23T06:24:26;32.97;;;23.60;;
62696;SDS011;48761;42.680;23.312;2022-11-23T06:26:52;29.85;;;22.45;;
62696;SDS011;48761;42.680;23.312;2022-11-23T06:29:19;35.03;;;25.30;;
62696;SDS011;48761;42.680;23.312;2022-11-23T06:31:45;32.65;;;23.45;;
62696;SDS011;48761;42.680;23.312;2022-11-23T06:34:11;37.22;;;25.33;;
62696;SDS011;48761;42.680;23.312;2022-11-23T06:36:37;35.13;;;24.40;;
62696;SDS011;48761;42.680;23.312;2022-11-23T06:39:03;33.33;;;24.70;;
62696;SDS011;48761;42.680;23.312;2022-11-23T06:41:30;34.70;;;25.45;;
62696;SDS011;48761;42.680;23.312;2022-11-23T06:43:56;38.45;;;26.45;;
62696;SDS011;48761;42.680;23.312;2022-11-23T06:46:22;33.38;;;25.30;;
62696;SDS011;48761;42.680;23.312;2022-11-23T06:48:48;36.33;;;26.80;;
62696;SDS011;48761;42.680;23.312;2022-11-23T06:51:15;37.15;;;26.23;;
62696;SDS011;48761;42.680;23.312;2022-11-23T06:53:41;37.65;;;26.92;;
62696;SDS011;48761;42.680;23.312;2022-11-23T06:56:07;37.45;;;26.02;;
62696;SDS011;48761;42.680;23.312;2022-11-23T06:58:34;38.75;;;27.65;;
62696;SDS011;48761;42.680;23.312;2022-11-23T07:01:01;36.40;;;26.77;;
62696;SDS011;48761;42.680;23.312;2022-11-23T07:03:28;39.50;;;26.75;;
62696;SDS011;48761;42.680;23.312;2022-11-23T07:05:54;35.17;;;25.02;;
62696;SDS011;48761;42.680;23.312;2022-11-23T07:08:20;35.95;;;25.13;;
62696;SDS011;48761;42.680;23.312;2022-11-23T07:10:46;36.38;;;26.98;;
62696;SDS011;48761;42.680;23.312;2022-11-23T07:13:13;33.00;;;24.88;;
62696;SDS011;48761;42.680;23.312;2022-11-23T07:15:39;31.38;;;23.23;;
62696;SDS011;48761;42.680;23.312;2022-11-23T07:18:06;33.10;;;25.25;;
62696;SDS011;48761;42.680;23.312;2022-11-23T07:20:34;41.28;;;24.83;;
62696;SDS011;48761;42.680;23.312;2022-11-23T07:23:01;33.95;;;23.85;;
62696;SDS011;48761;42.680;23.312;2022-11-23T07:25:29;34.47;;;24.42;;
62696;SDS011;48761;42.680;23.312;2022-11-23T07:27:56;39.67;;;24.83;;
62696;SDS011;48761;42.680;23.312;2022-11-23T07:30:26;37.33;;;26.08;;
62696;SDS011;48761;42.680;23.312;2022-11-23T07:32:57;34.13;;;23.30;;
62696;SDS011;48761;42.680;23.312;2022-11-23T07:35:27;33.50;;;22.60;;
62696;SDS011;48761;42.680;23.312;2022-11-23T07:37:54;36.45;;;23.83;;
62696;SDS011;48761;42.680;23.312;2022-11-23T07:40:20;35.20;;;24.05;;
62696;SDS011;48761;42.680;23.312;2022-11-23T07:42:46;34.10;;;23.08;;
62696;SDS011;48761;42.680;23.312;2022-11-23T07:45:12;30.70;;;23.42;;
62696;SDS011;48761;42.680;23.312;2022-11-23T07:47:38;30.98;;;22.13;;
62696;SDS011;48761;42.680;23.312;2022-11-23T07:50:05;26.67;;;20.70;;
62696;SDS011;48761;42.680;23.312;2022-11-23T07:52:32;31.60;;;22.15;;
62696;SDS011;48761;42.680;23.312;2022-11-23T07:54:58;29.38;;;21.67;;
62696;SDS011;48761;42.680;23.312;2022-11-23T07:57:24;31.05;;;22.35;;
62696;SDS011;48761;42.680;23.312;2022-11-23T07:59:50;28.30;;;21.67;;
62696;SDS011;48761;42.680;23.312;2022-11-23T08:02:16;30.40;;;19.35;;
62696;SDS011;48761;42.680;23.312;2022-11-23T08:04:43;32.95;;;20.75;;
62696;SDS011;48761;42.680;23.312;2022-11-23T08:07:08;26.55;;;19.23;;
62696;SDS011;48761;42.680;23.312;2022-11-23T08:09:35;29.33;;;19.05;;
62696;SDS011;48761;42.680;23.312;2022-11-23T08:12:01;27.20;;;19.95;;
62696;SDS011;48761;42.680;23.312;2022-11-23T08:14:28;22.85;;;18.20;;
62696;SDS011;48761;42.680;23.312;2022-11-23T08:16:54;26.48;;;19.13;;
62696;SDS011;48761;42.680;23.312;2022-11-23T08:19:20;29.20;;;19.75;;
62696;SDS011;48761;42.680;23.312;2022-11-23T08:21:46;24.63;;;19.02;;
62696;SDS011;48761;42.680;23.312;2022-11-23T08:24:12;25.60;;;18.60;;
62696;SDS011;48761;42.680;23.312;2022-11-23T08:26:38;27.13;;;19.67;;
62696;SDS011;48761;42.680;23.312;2022-11-23T08:29:04;29.67;;;21.33;;
62696;SDS011;48761;42.680;23.312;2022-11-23T08:31:30;27.85;;;20.42;;
62696;SDS011;48761;42.680;23.312;2022-11-23T08:33:56;26.58;;;19.77;;
62696;SDS011;48761;42.680;23.312;2022-11-23T08:36:22;30.23;;;20.80;;
62696;SDS011;48761;42.680;23.312;2022-11-23T08:38:48;29.00;;;21.48;;
62696;SDS011;48761;42.680;23.312;2022-11-23T08:41:14;26.60;;;19.55;;
62696;SDS011;48761;42.680;23.312;2022-11-23T08:43:40;23.08;;;17.92;;
62696;SDS011;48761;42.680;23.312;2022-11-23T08:46:07;23.70;;;18.48;;
62696;SDS011;48761;42.680;23.312;2022-11-23T08:48:33;24.70;;;18.00;;
62696;SDS011;48761;42.680;23.312;2022-11-23T08:50:59;29.83;;;19.27;;
62696;SDS011;48761;42.680;23.312;2022-11-23T08:53:26;27.38;;;21.42;;
62696;SDS011;48761;42.680;23.312;2022-11-23T08:55:52;27.50;;;21.60;;
62696;SDS011;48761;42.680;23.312;2022-11-23T08:58:18;31.42;;;21.75;;
62696;SDS011;48761;42.680;23.312;2022-11-23T09:00:44;27.73;;;19.92;;
62696;SDS011;48761;42.680;23.312;2022-11-23T09:03:10;27.55;;;19.17;;
62696;SDS011;48761;42.680;23.312;2022-11-23T09:05:36;22.13;;;17.27;;
62696;SDS011;48761;42.680;23.312;2022-11-23T09:08:03;24.05;;;17.45;;
62696;SDS011;48761;42.680;23.312;2022-11-23T09:10:30;20.73;;;16.13;;
62696;SDS011;48761;42.680;23.312;2022-11-23T09:12:56;18.90;;;15.95;;
62696;SDS011;48761;42.680;23.312;2022-11-23T09:15:23;22.15;;;17.42;;
62696;SDS011;48761;42.680;23.312;2022-11-23T09:17:49;24.05;;;17.77;;
62696;SDS011;48761;42.680;23.312;2022-11-23T09:20:15;29.90;;;19.70;;
62696;SDS011;48761;42.680;23.312;2022-11-23T09:22:41;27.70;;;18.75;;
62696;SDS011;48761;42.680;23.312;2022-11-23T09:25:07;21.27;;;15.55;;
62696;SDS011;48761;42.680;23.312;2022-11-23T09:27:34;23.08;;;15.52;;
62696;SDS011;48761;42.680;23.312;2022-11-23T09:30:00;23.75;;;16.05;;
62696;SDS011;48761;42.680;23.312;2022-11-23T09:32:26;20.98;;;16.27;;
62696;SDS011;48761;42.680;23.312;2022-11-23T09:34:55;21.38;;;16.15;;
62696;SDS011;48761;42.680;23.312;2022-11-23T09:37:21;21.35;;;15.20;;
62696;SDS011;48761;42.680;23.312;2022-11-23T09:39:47;19.30;;;14.35;;
62696;SDS011;48761;42.680;23.312;2022-11-23T09:50:46;18.17;;;11.93;;
62696;SDS011;48761;42.680;23.312;2022-11-23T09:53:15;17.67;;;12.20;;
62696;SDS011;48761;42.680;23.312;2022-11-23T09:56:03;16.83;;;12.02;;
62696;SDS011;48761;42.680;23.312;2022-11-23T09:58:31;18.65;;;11.13;;
62696;SDS011;48761;42.680;23.312;2022-11-23T10:01:05;14.98;;;10.90;;
62696;SDS011;48761;42.680;23.312;2022-11-23T10:03:37;16.90;;;11.75;;
62696;SDS011;48761;42.680;23.312;2022-11-23T10:14:47;15.00;;;10.98;;
62696;SDS011;48761;42.680;23.312;2022-11-23T10:17:30;14.13;;;9.83;;
62696;SDS011;48761;42.680;23.312;2022-11-23T10:22:42;14.40;;;9.80;;
62696;SDS011;48761;42.680;23.312;2022-11-23T10:25:31;13.40;;;9.10;;
62696;SDS011;48761;42.680;23.312;2022-11-23T10:28:11;14.73;;;9.10;;
62696;SDS011;48761;42.680;23.312;2022-11-23T10:30:39;13.30;;;9.48;;
62696;SDS011;48761;42.680;23.312;2022-11-23T10:33:15;14.60;;;9.93;;
62696;SDS011;48761;42.680;23.312;2022-11-23T10:35:48;10.27;;;7.90;;
62696;SDS011;48761;42.680;23.312;2022-11-23T10:38:16;12.27;;;8.70;;
62696;SDS011;48761;42.680;23.312;2022-11-23T10:41:00;15.00;;;8.45;;
62696;SDS011;48761;42.680;23.312;2022-11-23T10:43:48;14.32;;;8.40;;
62696;SDS011;48761;42.680;23.312;2022-11-23T10:54:55;7.47;;;5.47;;
62696;SDS011;48761;42.680;23.312;2022-11-23T11:02:39;8.05;;;5.13;;
62696;SDS011;48761;42.680;23.312;2022-11-23T11:05:20;7.53;;;4.95;;
62696;SDS011;48761;42.680;23.312;2022-11-23T11:07:49;7.47;;;4.38;;
62696;SDS011;48761;42.680;23.312;2022-11-23T11:10:33;8.05;;;4.63;;
62696;SDS011;48761;42.680;23.312;2022-11-23T11:13:23;5.93;;;3.63;;
62696;SDS011;48761;42.680;23.312;2022-11-23T11:16:27;7.75;;;3.38;;
62696;SDS011;48761;42.680;23.312;2022-11-23T11:18:55;5.60;;;3.45;;
62696;SDS011;48761;42.680;23.312;2022-11-23T11:21:22;6.43;;;3.70;;
62696;SDS011;48761;42.680;23.312;2022-11-23T11:26:24;6.13;;;3.35;;
62696;SDS011;48761;42.680;23.312;2022-11-23T11:28:52;8.27;;;4.25;;
62696;SDS011;48761;42.680;23.312;2022-11-23T11:39:27;5.72;;;4.07;;
62696;SDS011;48761;42.680;23.312;2022-11-23T11:41:59;5.28;;;3.40;;
62696;SDS011;48761;42.680;23.312;2022-11-23T11:44:29;6.82;;;3.90;;
62696;SDS011;48761;42.680;23.312;2022-11-23T11:47:03;4.80;;;3.00;;
62696;SDS011;48761;42.680;23.312;2022-11-23T11:49:43;8.10;;;2.65;;
62696;SDS011;48761;42.680;23.312;2022-11-23T11:52:23;4.85;;;2.47;;
62696;SDS011;48761;42.680;23.312;2022-11-23T11:58:13;3.53;;;2.15;;
62696;SDS011;48761;42.680;23.312;2022-11-23T12:00:40;3.72;;;2.30;;
62696;SDS011;48761;42.680;23.312;2022-11-23T12:05:52;6.07;;;2.05;;
62696;SDS011;48761;42.680;23.312;2022-11-23T12:08:23;2.47;;;1.60;;
62696;SDS011;48761;42.680;23.312;2022-11-23T12:11:10;4.53;;;2.00;;
62696;SDS011;48761;42.680;23.312;2022-11-23T12:13:39;2.58;;;1.50;;
62696;SDS011;48761;42.680;23.312;2022-11-23T12:24:31;4.45;;;1.58;;
62696;SDS011;48761;42.680;23.312;2022-11-23T12:38:30;5.07;;;2.30;;
62696;SDS011;48761;42.680;23.312;2022-11-23T12:52:26;1.70;;;0.80;;
62696;SDS011;48761;42.680;23.312;2022-11-23T12:55:01;1.33;;;0.88;;
62696;SDS011;48761;42.680;23.312;2022-11-23T13:00:13;4.97;;;1.02;;
62696;SDS011;48761;42.680;23.312;2022-11-23T13:15:59;1.70;;;1.00;;
62696;SDS011;48761;42.680;23.312;2022-11-23T13:21:21;1.27;;;0.60;;
62696;SDS011;48761;42.680;23.312;2022-11-23T13:29:45;3.03;;;1.20;;
62696;SDS011;48761;42.680;23.312;2022-11-23T13:40:26;2.20;;;1.13;;
62696;SDS011;48761;42.680;23.312;2022-11-23T13:42:58;2.65;;;1.38;;
62696;SDS011;48761;42.680;23.312;2022-11-23T13:45:31;3.53;;;1.23;;
62696;SDS011;48761;42.680;23.312;2022-11-23T13:48:05;3.13;;;1.30;;
62696;SDS011;48761;42.680;23.312;2022-11-23T13:50:36;2.15;;;1.67;;
62696;SDS011;48761;42.680;23.312;2022-11-23T13:55:55;6.00;;;1.70;;
62696;SDS011;48761;42.680;23.312;2022-11-23T14:00:51;8.73;;;1.90;;
62696;SDS011;48761;42.680;23.312;2022-11-23T14:09:20;5.00;;;1.90;;
62696;SDS011;48761;42.680;23.312;2022-11-23T14:12:07;6.85;;;2.35;;
62696;SDS011;48761;42.680;23.312;2022-11-23T14:33:58;7.22;;;2.30;;
62696;SDS011;48761;42.680;23.312;2022-11-23T14:39:25;8.45;;;2.63;;
62696;SDS011;48761;42.680;23.312;2022-11-23T14:42:16;11.00;;;4.85;;
62696;SDS011;48761;42.680;23.312;2022-11-23T14:44:44;9.57;;;3.60;;
62696;SDS011;48761;42.680;23.312;2022-11-23T14:47:10;5.50;;;2.38;;
62696;SDS011;48761;42.680;23.312;2022-11-23T14:49:36;13.23;;;2.45;;
62696;SDS011;48761;42.680;23.312;2022-11-23T14:52:15;4.93;;;1.08;;
62696;SDS011;48761;42.680;23.312;2022-11-23T14:54:52;3.20;;;0.60;;
62696;SDS011;48761;42.680;23.312;2022-11-23T14:57:21;4.53;;;1.05;;
62696;SDS011;48761;42.680;23.312;2022-11-23T14:59:53;2.50;;;1.10;;
62696;SDS011;48761;42.680;23.312;2022-11-23T15:02:38;2.80;;;0.95;;
62696;SDS011;48761;42.680;23.312;2022-11-23T15:05:13;6.32;;;1.50;;
62696;SDS011;48761;42.680;23.312;2022-11-23T15:13:21;5.43;;;2.33;;
62696;SDS011;48761;42.680;23.312;2022-11-23T15:15:52;7.03;;;2.00;;
62696;SDS011;48761;42.680;23.312;2022-11-23T15:18:32;5.55;;;1.90;;
62696;SDS011;48761;42.680;23.312;2022-11-23T15:21:01;3.80;;;2.17;;
62696;SDS011;48761;42.680;23.312;2022-11-23T15:23:48;5.10;;;1.98;;
62696;SDS011;48761;42.680;23.312;2022-11-23T15:28:46;9.30;;;3.15;;
62696;SDS011;48761;42.680;23.312;2022-11-23T15:31:17;10.27;;;4.82;;
62696;SDS011;48761;42.680;23.312;2022-11-23T15:33:47;6.00;;;2.05;;
62696;SDS011;48761;42.680;23.312;2022-11-23T15:36:17;4.82;;;1.95;;
62696;SDS011;48761;42.680;23.312;2022-11-23T15:39:05;5.05;;;2.55;;
62696;SDS011;48761;42.680;23.312;2022-11-23T15:41:31;9.00;;;3.55;;
62696;SDS011;48761;42.680;23.312;2022-11-23T15:43:58;6.28;;;3.40;;
62696;SDS011;48761;42.680;23.312;2022-11-23T15:46:33;6.65;;;3.35;;
62696;SDS011;48761;42.680;23.312;2022-11-23T15:49:01;12.60;;;3.45;;
62696;SDS011;48761;42.680;23.312;2022-11-23T15:51:30;6.97;;;3.70;;
62696;SDS011;48761;42.680;23.312;2022-11-23T15:56:32;14.48;;;3.80;;
62696;SDS011;48761;42.680;23.312;2022-11-23T15:59:02;9.30;;;3.42;;
62696;SDS011;48761;42.680;23.312;2022-11-23T16:01:48;10.45;;;3.88;;
62696;SDS011;48761;42.680;23.312;2022-11-23T16:04:28;10.88;;;3.90;;
62696;SDS011;48761;42.680;23.312;2022-11-23T16:07:15;12.13;;;5.15;;
62696;SDS011;48761;42.680;23.312;2022-11-23T16:12:50;12.40;;;5.72;;
62696;SDS011;48761;42.680;23.312;2022-11-23T16:15:31;10.93;;;5.72;;
62696;SDS011;48761;42.680;23.312;2022-11-23T16:18:00;14.13;;;5.45;;
62696;SDS011;48761;42.680;23.312;2022-11-23T16:20:28;10.48;;;5.20;;
62696;SDS011;48761;42.680;23.312;2022-11-23T16:22:55;9.73;;;5.05;;
62696;SDS011;48761;42.680;23.312;2022-11-23T16:28:32;13.52;;;5.50;;
62696;SDS011;48761;42.680;23.312;2022-11-23T16:30:58;10.35;;;5.13;;
62696;SDS011;48761;42.680;23.312;2022-11-23T16:33:24;8.93;;;5.40;;
62696;SDS011;48761;42.680;23.312;2022-11-23T16:35:50;13.68;;;6.20;;
62696;SDS011;48761;42.680;23.312;2022-11-23T16:38:16;11.57;;;4.53;;
62696;SDS011;48761;42.680;23.312;2022-11-23T16:40:43;14.15;;;5.47;;
62696;SDS011;48761;42.680;23.312;2022-11-23T16:43:10;14.20;;;5.03;;
62696;SDS011;48761;42.680;23.312;2022-11-23T16:45:37;11.55;;;5.00;;
62696;SDS011;48761;42.680;23.312;2022-11-23T16:48:27;9.60;;;4.53;;
62696;SDS011;48761;42.680;23.312;2022-11-23T16:50:51;14.85;;;5.22;;
62696;SDS011;48761;42.680;23.312;2022-11-23T16:53:18;16.88;;;6.07;;
62696;SDS011;48761;42.680;23.312;2022-11-23T16:55:54;13.00;;;6.38;;
62696;SDS011;48761;42.680;23.312;2022-11-23T16:58:22;12.32;;;5.93;;
62696;SDS011;48761;42.680;23.312;2022-11-23T17:00:48;10.10;;;5.35;;
62696;SDS011;48761;42.680;23.312;2022-11-23T17:03:15;11.25;;;5.20;;
62696;SDS011;48761;42.680;23.312;2022-11-23T17:05:42;12.35;;;5.30;;
62696;SDS011;48761;42.680;23.312;2022-11-23T17:08:08;10.80;;;5.15;;
62696;SDS011;48761;42.680;23.312;2022-11-23T17:10:35;7.18;;;4.47;;
62696;SDS011;48761;42.680;23.312;2022-11-23T17:13:02;12.57;;;6.68;;
62696;SDS011;48761;42.680;23.312;2022-11-23T17:15:28;13.35;;;5.22;;
62696;SDS011;48761;42.680;23.312;2022-11-23T17:17:54;11.93;;;4.95;;
62696;SDS011;48761;42.680;23.312;2022-11-23T17:20:21;16.90;;;7.40;;
62696;SDS011;48761;42.680;23.312;2022-11-23T17:22:47;22.55;;;8.90;;